createdAt,value
2023-02-18T00:01:58.067Z,99922.35
2023-02-18T00:04:26.754Z,99924.23
2023-02-18T00:06:55.526Z,99928.41
2023-02-18T00:09:24.327Z,99923.58
2023-02-18T00:11:53.426Z,99936.52
2023-02-18T00:14:21.985Z,99937.50
2023-02-18T00:16:50.576Z,99936.44
2023-02-18T00:19:20.619Z,99938.83
2023-02-18T00:21:49.586Z,99939.52
2023-02-18T00:24:18.358Z,99942.80
2023-02-18T00:26:46.851Z,99953.13
2023-02-18T00:29:15.638Z,99950.04
2023-02-18T00:31:44.622Z,99937.31
2023-02-18T00:34:14.347Z,99938.98
2023-02-18T00:36:43.225Z,99949.60
2023-02-18T00:39:13.480Z,99951.46
2023-02-18T00:41:43.163Z,99961.45
2023-02-18T00:44:13.286Z,99952.19
2023-02-18T00:46:42.153Z,99952.20
2023-02-18T00:49:10.768Z,99960.15
2023-02-18T00:51:40.021Z,99959.81
2023-02-18T00:54:09.658Z,99970.13
2023-02-18T00:56:38.339Z,99973.30
2023-02-18T00:59:07.258Z,99967.70
2023-02-18T01:01:36.993Z,99970.92
2023-02-18T01:04:05.635Z,99970.49
2023-02-18T01:06:34.234Z,99968.19
2023-02-18T01:09:05.338Z,99971.99
2023-02-18T01:11:33.956Z,99970.23
2023-02-18T01:14:03.149Z,99972.73
2023-02-18T01:16:31.852Z,99966.05
2023-02-18T01:19:00.633Z,99973.34
2023-02-18T01:21:29.296Z,99971.61
2023-02-18T01:23:58.821Z,99976.48
2023-02-18T01:26:27.285Z,99980.17
2023-02-18T01:28:55.878Z,99979.95
2023-02-18T01:31:24.582Z,99974.34
2023-02-18T01:33:53.236Z,99977.14
2023-02-18T01:36:22.436Z,99981.02
2023-02-18T01:38:51.318Z,99985.16
2023-02-18T01:41:20.828Z,99980.61
2023-02-18T01:44:09.376Z,99994.30
2023-02-18T01:46:39.336Z,99986.81
2023-02-18T01:49:08.389Z,99988.30
2023-02-18T01:51:40.442Z,99986.45
2023-02-18T01:54:14.424Z,99987.66
2023-02-18T01:57:07.725Z,99992.95
2023-02-18T01:59:46.890Z,99992.05
2023-02-18T02:02:23.006Z,99993.90
2023-02-18T02:04:51.807Z,99996.55
2023-02-18T02:07:22.944Z,99995.18
2023-02-18T02:09:53.382Z,99990.86
2023-02-18T02:12:21.870Z,99990.64
2023-02-18T02:14:56.680Z,99992.79
2023-02-18T02:18:16.366Z,99991.63
2023-02-18T02:20:50.624Z,99994.13
2023-02-18T02:23:49.772Z,99997.05
2023-02-18T02:26:56.764Z,99991.48
2023-02-18T02:29:45.921Z,99995.25
2023-02-18T02:32:39.625Z,100000.98
2023-02-18T02:35:27.422Z,100001.19
2023-02-18T02:38:08.563Z,100005.38
2023-02-18T02:41:09.666Z,100004.54
2023-02-18T02:43:49.292Z,100003.08
2023-02-18T02:46:28.945Z,100008.14
2023-02-18T02:49:16.056Z,100002.52
2023-02-18T02:52:12.809Z,100013.98
2023-02-18T02:54:41.403Z,100014.82
2023-02-18T02:57:30.535Z,100013.19
2023-02-18T03:00:14.718Z,100015.76
2023-02-18T03:02:48.650Z,100020.98
2023-02-18T03:05:49.655Z,100025.36
2023-02-18T03:08:30.731Z,100025.18
2023-02-18T03:11:05.574Z,100026.10
2023-02-18T03:13:44.095Z,100020.39
2023-02-18T03:16:35.647Z,100022.19
2023-02-18T03:19:23.446Z,100017.27
2023-02-18T03:22:04.310Z,100014.55
2023-02-18T03:24:42.717Z,100020.91
2023-02-18T03:27:24.515Z,100024.79
2023-02-18T03:29:58.572Z,100022.19
2023-02-18T03:32:28.030Z,100020.26
2023-02-18T03:35:01.250Z,100021.82
2023-02-18T03:37:33.460Z,100025.11
2023-02-18T03:40:02.375Z,100023.63
2023-02-18T03:42:30.845Z,100033.13
2023-02-18T03:45:00.694Z,100034.05
2023-02-18T03:47:29.356Z,100040.94
2023-02-18T03:49:58.158Z,100044.48
2023-02-18T03:52:26.610Z,100047.10
2023-02-18T03:54:55.410Z,100053.41
2023-02-18T03:57:24.082Z,100050.61
2023-02-18T03:59:53.088Z,100055.55
2023-02-18T04:02:21.579Z,100054.17
2023-02-18T04:04:50.573Z,100056.09
2023-02-18T04:07:19.249Z,100058.11
2023-02-18T04:09:48.134Z,100058.38
2023-02-18T04:12:18.050Z,100058.05
2023-02-18T04:14:46.527Z,100059.73
2023-02-18T04:17:15.118Z,100063.52
2023-02-18T04:19:44.729Z,100064.94
2023-02-18T04:22:13.401Z,100067.16
2023-02-18T04:24:42.181Z,100065.86
2023-02-18T04:27:10.662Z,100078.59
2023-02-18T04:29:39.765Z,100068.42
2023-02-18T04:32:08.606Z,100064.63
2023-02-18T04:34:37.476Z,100057.83
2023-02-18T04:37:06.220Z,100058.50
2023-02-18T04:39:34.928Z,100055.62
2023-02-18T04:42:09.218Z,100056.67
2023-02-18T04:44:38.330Z,100060.76
2023-02-18T04:47:07.752Z,100062.75
2023-02-18T04:49:36.723Z,100059.13
2023-02-18T04:52:05.656Z,100058.76
2023-02-18T04:54:34.091Z,100060.81
2023-02-18T04:57:02.712Z,100059.27
2023-02-18T04:59:31.478Z,100061.39
2023-02-18T05:02:00.265Z,100065.20
2023-02-18T05:04:29.174Z,100066.85
2023-02-18T05:06:57.948Z,100061.20
2023-02-18T05:09:26.522Z,100062.27
2023-02-18T05:11:55.512Z,100064.56
2023-02-18T05:14:24.111Z,100059.27
2023-02-18T05:16:52.877Z,100062.48
2023-02-18T05:19:21.674Z,100061.88
2023-02-18T05:21:50.475Z,100063.16
2023-02-18T05:24:19.253Z,100068.92
2023-02-18T05:26:49.353Z,100073.50
2023-02-18T05:29:17.944Z,100077.92
2023-02-18T05:31:48.302Z,100075.23
2023-02-18T05:34:17.071Z,100073.73
2023-02-18T05:36:45.751Z,100081.33
2023-02-18T05:39:14.529Z,100080.61
2023-02-18T05:41:43.335Z,100083.80
2023-02-18T05:44:30.536Z,100091.55
2023-02-18T05:47:01.461Z,100079.16
2023-02-18T05:49:31.211Z,100088.77
2023-02-18T05:52:00.793Z,100089.06
2023-02-18T05:54:29.491Z,100089.82
2023-02-18T05:56:58.509Z,100089.79
2023-02-18T05:59:27.150Z,100091.18
2023-02-18T06:01:56.353Z,100084.84
2023-02-18T06:04:25.361Z,100089.38
2023-02-18T06:06:55.078Z,100087.91
2023-02-18T06:09:24.051Z,100088.89
2023-02-18T06:11:52.530Z,100094.02
2023-02-18T06:14:21.231Z,100096.27
2023-02-18T06:16:50.113Z,100093.77
2023-02-18T06:19:18.713Z,100097.79
2023-02-18T06:21:47.497Z,100094.88
2023-02-18T06:24:16.273Z,100098.84
2023-02-18T06:26:44.860Z,100099.27
2023-02-18T06:29:13.753Z,100094.73
2023-02-18T06:31:42.477Z,100096.94
2023-02-18T06:34:11.208Z,100100.25
2023-02-18T06:36:40.826Z,100095.29
2023-02-18T06:39:09.387Z,100097.06
2023-02-18T06:41:38.086Z,100100.80
2023-02-18T06:44:06.860Z,100105.07
2023-02-18T06:46:35.585Z,100106.08
2023-02-18T06:49:04.746Z,100108.36
2023-02-18T06:51:33.558Z,100107.99
2023-02-18T06:54:02.444Z,100108.16
2023-02-18T06:56:31.163Z,100108.77
2023-02-18T06:58:59.825Z,100116.00
2023-02-18T07:01:28.490Z,100114.11
2023-02-18T07:03:57.529Z,100120.06
2023-02-18T07:06:26.463Z,100122.13
2023-02-18T07:08:56.382Z,100124.10
2023-02-18T07:11:25.064Z,100119.73
2023-02-18T07:13:53.741Z,100124.98
2023-02-18T07:16:22.625Z,100126.86
2023-02-18T07:18:51.220Z,100124.90
2023-02-18T07:21:19.802Z,100120.52
2023-02-18T07:23:48.389Z,100117.17
2023-02-18T07:26:17.075Z,100114.70
2023-02-18T07:28:45.865Z,100114.02
2023-02-18T07:31:14.440Z,100120.44
2023-02-18T07:33:43.451Z,100119.86
2023-02-18T07:36:12.055Z,100119.10
2023-02-18T07:38:42.003Z,100114.80
2023-02-18T07:41:23.315Z,100111.70
2023-02-18T07:43:51.905Z,100111.66
2023-02-18T07:46:20.710Z,100115.65
2023-02-18T07:48:49.573Z,100114.45
2023-02-18T07:51:18.363Z,100113.90
2023-02-18T07:53:46.854Z,100117.27
2023-02-18T07:56:16.143Z,100114.59
2023-02-18T07:58:44.624Z,100114.35
2023-02-18T08:01:15.417Z,100112.14
2023-02-18T08:03:44.355Z,100120.73
2023-02-18T08:06:47.664Z,100120.69
2023-02-18T08:09:17.364Z,100124.10
2023-02-18T08:11:46.349Z,100128.05
2023-02-18T08:14:15.035Z,100131.06
2023-02-18T08:16:43.669Z,100129.31
2023-02-18T08:19:12.309Z,100127.00
2023-02-18T08:21:41.197Z,100133.58
2023-02-18T08:24:09.782Z,100144.63
2023-02-18T08:26:38.882Z,100138.89
2023-02-18T08:29:09.819Z,100136.63
2023-02-18T08:31:38.592Z,100131.59
2023-02-18T08:34:07.511Z,100131.30
2023-02-18T08:36:36.503Z,100132.61
2023-02-18T08:39:05.282Z,100122.09
2023-02-18T08:41:33.757Z,100122.16
2023-02-18T08:44:02.543Z,100123.94
2023-02-18T08:46:33.424Z,100119.54
2023-02-18T08:49:05.479Z,100125.30
2023-02-18T08:51:34.348Z,100120.98
2023-02-18T08:54:03.846Z,100132.37
2023-02-18T08:56:33.056Z,100126.01
2023-02-18T08:59:01.629Z,100132.20
2023-02-18T09:01:30.492Z,100123.45
2023-02-18T09:03:59.360Z,100127.42
2023-02-18T09:06:28.200Z,100137.22
2023-02-18T09:08:56.990Z,100133.64
2023-02-18T09:11:26.201Z,100130.54
2023-02-18T09:13:55.072Z,100127.73
2023-02-18T09:16:26.213Z,100120.76
2023-02-18T09:18:56.132Z,100108.98
2023-02-18T09:21:25.640Z,100108.29
2023-02-18T09:23:54.852Z,100104.11
2023-02-18T09:26:25.597Z,100106.31
2023-02-18T09:28:56.541Z,100110.61
2023-02-18T09:31:27.565Z,100111.64
2023-02-18T09:34:01.871Z,100115.27
2023-02-18T09:36:31.186Z,100117.80
2023-02-18T09:39:00.556Z,100119.79
2023-02-18T09:41:52.423Z,100114.34
2023-02-18T09:44:32.937Z,100114.62
2023-02-18T09:47:07.313Z,100111.55
2023-02-18T09:49:38.795Z,100119.31
2023-02-18T09:52:11.823Z,100109.78
2023-02-18T09:54:41.213Z,100110.27
2023-02-18T09:57:31.641Z,100107.13
2023-02-18T10:00:02.500Z,100102.39
2023-02-18T10:02:41.402Z,100105.74
2023-02-18T10:05:14.683Z,100100.20
2023-02-18T10:07:43.969Z,100104.29
2023-02-18T10:10:29.154Z,100102.05
2023-02-18T10:12:57.958Z,100105.90
2023-02-18T10:15:29.490Z,100107.80
2023-02-18T10:17:59.172Z,100097.50
2023-02-18T10:20:30.956Z,100097.52
2023-02-18T10:23:01.686Z,100091.10
2023-02-18T10:25:31.172Z,100087.59
2023-02-18T10:28:00.487Z,100080.69
2023-02-18T10:30:36.624Z,100075.91
2023-02-18T10:33:40.892Z,100072.59
2023-02-18T10:36:25.632Z,100062.28
2023-02-18T10:39:22.015Z,100057.85
2023-02-18T10:42:15.457Z,100041.23
2023-02-18T10:44:50.099Z,100031.91
2023-02-18T10:47:25.797Z,100032.55
2023-02-18T10:50:09.419Z,100023.78
2023-02-18T10:52:44.806Z,100015.13
2023-02-18T10:55:19.110Z,100010.39
2023-02-18T10:57:55.578Z,100003.33
2023-02-18T11:00:28.029Z,99994.27
2023-02-18T11:03:24.352Z,99994.43
2023-02-18T11:05:55.762Z,99983.61
2023-02-18T11:08:27.833Z,99981.98
2023-02-18T11:10:56.963Z,99975.17
2023-02-18T11:13:29.605Z,99965.75
2023-02-18T11:16:04.689Z,99961.52
2023-02-18T11:18:41.780Z,99961.17
2023-02-18T11:21:32.724Z,99952.35
2023-02-18T11:24:09.889Z,99949.52
2023-02-18T11:26:40.285Z,99947.60
2023-02-18T11:29:35.802Z,99944.52
2023-02-18T11:32:05.064Z,99935.29
2023-02-18T11:34:35.023Z,99925.48
2023-02-18T11:37:13.037Z,99916.46
2023-02-18T11:39:46.714Z,99909.64
2023-02-18T11:42:17.311Z,99903.25
2023-02-18T11:45:02.857Z,99899.05
2023-02-18T11:47:36.748Z,99888.82
2023-02-18T11:50:17.156Z,99871.42
2023-02-18T11:52:48.065Z,99854.40
2023-02-18T11:55:19.990Z,99848.95
2023-02-18T11:57:57.034Z,99844.02
2023-02-18T12:00:46.954Z,99839.91
2023-02-18T12:03:38.803Z,99837.34
2023-02-18T12:06:21.672Z,99839.94
2023-02-18T12:08:55.213Z,99834.71
2023-02-18T12:11:29.871Z,99817.56
2023-02-18T12:13:59.563Z,99805.63
2023-02-18T12:16:55.896Z,99797.16
2023-02-18T12:19:46.890Z,99788.23
2023-02-18T12:22:26.334Z,99777.98
2023-02-18T12:25:20.638Z,99772.45
2023-02-18T12:28:24.834Z,99772.14
2023-02-18T12:31:03.380Z,99764.69
2023-02-18T12:33:43.294Z,99754.41
2023-02-18T12:36:36.874Z,99752.70
2023-02-18T12:39:27.989Z,99743.11
2023-02-18T12:42:25.755Z,99739.81
2023-02-18T12:45:04.863Z,99715.32
2023-02-18T12:47:46.055Z,99708.87
2023-02-18T12:50:40.043Z,99724.27
2023-02-18T12:53:34.123Z,99715.33
2023-02-18T12:56:21.013Z,99695.35
2023-02-18T12:59:06.285Z,99682.68
2023-02-18T13:02:01.289Z,99667.29
2023-02-18T13:04:55.501Z,99679.00
2023-02-18T13:07:35.551Z,99658.98
2023-02-18T13:10:33.412Z,99646.58
2023-02-18T13:13:25.649Z,99630.77
2023-02-18T13:15:59.269Z,99631.40
2023-02-18T13:18:48.254Z,99636.45
2023-02-18T13:21:17.408Z,99624.64
2023-02-18T13:23:50.579Z,99614.80
2023-02-18T13:26:20.129Z,99604.02
2023-02-18T13:29:24.430Z,99596.37
2023-02-18T13:32:03.476Z,99585.08
2023-02-18T13:34:43.909Z,99571.92
2023-02-18T13:37:27.848Z,99568.20
2023-02-18T13:39:58.070Z,99557.83
2023-02-18T13:42:35.131Z,99549.36
2023-02-18T13:45:29.039Z,99553.98
2023-02-18T13:47:59.719Z,99551.77
2023-02-18T13:50:32.338Z,99546.48
2023-02-18T13:53:21.312Z,99551.49
2023-02-18T13:56:04.120Z,99542.92
2023-02-18T13:59:12.313Z,99534.52
2023-02-18T14:01:44.410Z,99524.58
2023-02-18T14:04:42.554Z,99523.08
2023-02-18T14:07:18.474Z,99526.71
2023-02-18T14:09:48.216Z,99518.25
2023-02-18T14:12:26.018Z,99508.62
2023-02-18T14:14:55.012Z,99499.61
2023-02-18T14:17:24.824Z,99487.21
2023-02-18T14:20:02.745Z,99485.08
2023-02-18T14:22:32.337Z,99477.16
2023-02-18T14:25:23.875Z,99470.70
2023-02-18T14:27:54.174Z,99458.09
2023-02-18T14:30:23.644Z,99452.92
2023-02-18T14:32:57.008Z,99447.40
2023-02-18T14:35:48.278Z,99443.39
2023-02-18T14:38:39.428Z,99441.55
2023-02-18T14:41:35.546Z,99431.79
2023-02-18T14:44:08.844Z,99427.13
2023-02-18T14:46:53.924Z,99424.73
2023-02-18T14:49:42.567Z,99425.61
2023-02-18T14:52:39.612Z,99426.23
2023-02-18T14:55:20.642Z,99429.73
2023-02-18T14:57:53.482Z,99428.13
2023-02-18T15:00:30.647Z,99425.51
2023-02-18T15:03:02.327Z,99428.20
2023-02-18T15:05:33.634Z,99429.84
2023-02-18T15:08:09.766Z,99440.73
2023-02-18T15:10:46.590Z,99440.23
2023-02-18T15:13:24.612Z,99439.14
2023-02-18T15:16:00.440Z,99440.92
2023-02-18T15:18:34.256Z,99438.33
2023-02-18T15:21:09.017Z,99437.58
2023-02-18T15:23:40.647Z,99433.52
2023-02-18T15:26:17.139Z,99439.65
2023-02-18T15:29:05.502Z,99436.07
2023-02-18T15:31:40.713Z,99440.79
2023-02-18T15:34:26.072Z,99430.38
2023-02-18T15:36:56.662Z,99424.91
2023-02-18T15:39:27.939Z,99424.88
2023-02-18T15:42:07.284Z,99423.71
2023-02-18T15:44:37.331Z,99415.71
2023-02-18T15:47:09.961Z,99417.60
2023-02-18T15:49:48.653Z,99406.21
2023-02-18T15:52:26.396Z,99412.45
2023-02-18T15:54:57.447Z,99398.18
2023-02-18T15:57:29.169Z,99397.65
2023-02-18T16:00:04.958Z,99403.96
2023-02-18T16:02:37.384Z,99397.89
2023-02-18T16:05:15.103Z,99397.50
2023-02-18T16:08:13.339Z,99403.11
2023-02-18T16:10:54.264Z,99404.88
2023-02-18T16:13:26.452Z,99410.48
2023-02-18T16:15:56.995Z,99407.38
2023-02-18T16:18:39.122Z,99410.48
2023-02-18T16:21:25.869Z,99411.15
2023-02-18T16:24:00.589Z,99412.55
2023-02-18T16:26:31.985Z,99400.40
2023-02-18T16:29:14.251Z,99386.13
2023-02-18T16:31:44.751Z,99389.39
2023-02-18T16:34:14.177Z,99395.30
2023-02-18T16:37:05.207Z,99401.41
2023-02-18T16:39:37.044Z,99408.84
2023-02-18T16:42:12.272Z,99415.94
2023-02-18T16:44:42.053Z,99420.13
2023-02-18T16:47:15.420Z,99411.13
2023-02-18T16:49:50.302Z,99418.13
2023-02-18T16:52:21.006Z,99425.87
2023-02-18T16:54:50.960Z,99429.04
2023-02-18T16:57:20.354Z,99421.23
2023-02-18T16:59:51.248Z,99423.31
2023-02-18T17:02:25.886Z,99424.77
2023-02-18T17:04:58.244Z,99430.95
2023-02-18T17:07:28.370Z,99430.66
2023-02-18T17:09:58.238Z,99428.08
2023-02-18T17:12:29.485Z,99423.33
2023-02-18T17:14:59.485Z,99423.69
2023-02-18T17:17:29.805Z,99431.14
2023-02-18T17:19:59.124Z,99442.76
2023-02-18T17:22:30.564Z,99438.24
2023-02-18T17:25:02.126Z,99435.36
2023-02-18T17:27:32.214Z,99437.60
2023-02-18T17:30:03.125Z,99447.33
2023-02-18T17:32:33.190Z,99465.20
2023-02-18T17:35:03.726Z,99461.99
2023-02-18T17:37:33.942Z,99458.96
2023-02-18T17:40:04.744Z,99461.41
2023-02-18T17:42:36.606Z,99472.27
2023-02-18T17:45:36.574Z,99480.27
2023-02-18T17:48:06.469Z,99489.95
2023-02-18T17:50:36.110Z,99487.36
2023-02-18T17:53:07.767Z,99490.02
2023-02-18T17:55:37.751Z,99485.60
2023-02-18T17:58:08.717Z,99496.04
2023-02-18T18:00:42.168Z,99495.65
2023-02-18T18:03:16.134Z,99503.98
2023-02-18T18:05:49.069Z,99509.97
2023-02-18T18:08:20.527Z,99514.27
2023-02-18T18:10:55.580Z,99515.14
2023-02-18T18:13:36.399Z,99524.48
2023-02-18T18:16:07.288Z,99530.91
2023-02-18T18:18:37.800Z,99533.59
2023-02-18T18:21:31.263Z,99535.52
2023-02-18T18:24:03.143Z,99544.23
2023-02-18T18:26:34.263Z,99537.86
2023-02-18T18:29:08.110Z,99539.89
2023-02-18T18:31:42.276Z,99554.82
2023-02-18T18:34:22.270Z,99554.08
2023-02-18T18:36:52.688Z,99549.63
2023-02-18T18:39:26.248Z,99550.76
2023-02-18T18:41:56.699Z,99551.70
2023-02-18T18:44:27.240Z,99554.39
2023-02-18T18:46:59.922Z,99559.95
2023-02-18T18:49:30.732Z,99566.73
2023-02-18T18:52:00.685Z,99555.41
2023-02-18T18:54:31.452Z,99577.11
2023-02-18T18:57:01.023Z,99570.77
2023-02-18T18:59:36.874Z,99585.77
2023-02-18T19:02:17.563Z,99598.68
2023-02-18T19:04:51.132Z,99602.20
2023-02-18T19:07:21.258Z,99617.88
2023-02-18T19:09:52.319Z,99619.08
2023-02-18T19:12:23.221Z,99619.11
2023-02-18T19:14:53.896Z,99606.20
2023-02-18T19:17:23.544Z,99619.84
2023-02-18T19:19:55.808Z,99624.33
2023-02-18T19:22:26.145Z,99636.48
2023-02-18T19:24:58.074Z,99651.12
2023-02-18T19:27:32.941Z,99647.74
2023-02-18T19:30:08.698Z,99661.52
2023-02-18T19:32:47.943Z,99670.20
2023-02-18T19:35:19.486Z,99667.77
2023-02-18T19:37:54.400Z,99673.17
2023-02-18T19:40:28.869Z,99682.85
2023-02-18T19:43:07.956Z,99678.23
2023-02-18T19:45:45.946Z,99680.16
2023-02-18T19:48:37.604Z,99699.36
2023-02-18T19:51:09.704Z,99694.80
2023-02-18T19:56:28.978Z,99708.16
2023-02-18T19:58:59.145Z,99708.55
2023-02-18T20:01:33.669Z,99719.88
2023-02-18T20:04:06.472Z,99732.48
2023-02-18T20:06:38.109Z,99748.52
2023-02-18T20:09:08.142Z,99752.36
2023-02-18T20:11:39.347Z,99759.10
2023-02-18T20:14:19.318Z,99756.88
2023-02-18T20:16:50.843Z,99755.31
2023-02-18T20:19:27.399Z,99775.64
2023-02-18T20:22:02.430Z,99755.40
2023-02-18T20:24:33.333Z,99782.01
2023-02-18T20:27:04.412Z,99790.95
2023-02-18T20:29:36.860Z,99813.28
2023-02-18T20:32:09.788Z,99837.67
2023-02-18T20:34:40.957Z,99833.48
2023-02-18T20:37:13.646Z,99840.89
2023-02-18T20:39:45.669Z,99841.65
2023-02-18T20:42:17.135Z,99846.10
2023-02-18T20:44:47.852Z,99851.13
2023-02-18T20:47:21.276Z,99851.20
2023-02-18T20:49:53.552Z,99858.10
2023-02-18T20:52:25.081Z,99852.39
2023-02-18T20:54:59.582Z,99849.98
2023-02-18T20:57:31.087Z,99852.64
2023-02-18T21:00:01.631Z,99858.15
2023-02-18T21:02:31.843Z,99864.20
2023-02-18T21:05:02.831Z,99861.67
2023-02-18T21:07:35.520Z,99860.55
2023-02-18T21:10:05.738Z,99864.27
2023-02-18T21:12:39.471Z,99867.98
2023-02-18T21:15:11.715Z,99871.92
2023-02-18T21:17:42.078Z,99878.14
2023-02-18T21:20:12.474Z,99882.45
2023-02-18T21:22:43.640Z,99882.72
2023-02-18T21:25:14.817Z,99877.40
2023-02-18T21:27:44.791Z,99882.56
2023-02-18T21:30:14.528Z,99882.34
2023-02-18T21:32:45.188Z,99881.37
2023-02-18T21:35:14.848Z,99887.55
2023-02-18T21:37:45.591Z,99890.69
2023-02-18T21:40:17.155Z,99894.14
2023-02-18T21:42:47.282Z,99895.23
2023-02-18T21:45:17.602Z,99897.04
2023-02-18T21:47:48.507Z,99900.08
2023-02-18T21:50:17.905Z,99903.69
2023-02-18T21:52:47.228Z,99905.11
2023-02-18T21:55:16.419Z,99904.46
2023-02-18T21:57:46.630Z,99913.65
2023-02-18T22:00:20.519Z,99905.52
2023-02-18T22:02:49.940Z,99898.43
2023-02-18T22:05:18.853Z,99903.58
2023-02-18T22:07:48.263Z,99913.49
2023-02-18T22:10:19.513Z,99923.04
2023-02-18T22:12:48.982Z,99920.20
2023-02-18T22:15:17.575Z,99919.70
2023-02-18T22:17:46.487Z,99922.38
2023-02-18T22:20:16.173Z,99921.02
2023-02-18T22:22:44.856Z,99922.90
2023-02-18T22:25:13.775Z,99930.80
2023-02-18T22:27:42.838Z,99936.73
2023-02-18T22:30:12.397Z,99930.66
2023-02-18T22:32:41.130Z,99934.27
2023-02-18T22:35:10.016Z,99933.08
2023-02-18T22:37:38.798Z,99935.57
2023-02-18T22:40:07.817Z,99938.20
2023-02-18T22:42:36.687Z,99939.40
2023-02-18T22:45:05.869Z,99942.73
2023-02-18T22:47:35.184Z,99948.45
2023-02-18T22:50:04.382Z,99946.10
2023-02-18T22:52:32.960Z,99938.50
2023-02-18T22:55:01.646Z,99941.16
2023-02-18T22:57:30.248Z,99944.55
2023-02-18T22:59:59.013Z,99945.58
2023-02-18T23:02:27.926Z,99944.31
2023-02-18T23:04:56.386Z,99952.48
2023-02-18T23:07:25.292Z,99952.15
2023-02-18T23:09:54.095Z,99952.13
2023-02-18T23:12:23.569Z,99961.86
2023-02-18T23:14:53.288Z,99965.38
2023-02-18T23:17:22.107Z,99968.58
2023-02-18T23:19:52.712Z,99963.42
2023-02-18T23:22:32.671Z,99959.42
2023-02-18T23:25:02.369Z,99964.68
2023-02-18T23:27:31.472Z,99966.98
2023-02-18T23:30:00.291Z,99969.38
2023-02-18T23:32:31.189Z,99965.60
2023-02-18T23:35:00.101Z,99967.06
2023-02-18T23:37:47.091Z,99965.42
2023-02-18T23:40:17.140Z,99963.89
2023-02-18T23:42:45.612Z,99968.91
2023-02-18T23:45:14.580Z,99968.41
2023-02-18T23:47:43.172Z,99966.27
2023-02-18T23:50:15.433Z,99968.70
2023-02-18T23:52:44.537Z,99967.23
2023-02-18T23:55:13.001Z,99965.17
2023-02-18T23:57:41.723Z,99964.92
